sensor_id;sensor_type;location;lat;lon;timestamp;noise_LAeq;noise_LA_min;noise_LA_max;noise_LA01;noise_LA95
71628;Laerm;59477;52.374;9.916;2024-01-07T00:01:51;42.56;39.24;49.69;;
71628;Laerm;59477;52.374;9.916;2024-01-07T00:03:51;43.14;39.13;51.68;;
71628;Laerm;59477;52.374;9.916;2024-01-07T00:06:10;45.45;39.69;57.95;;
71628;Laerm;59477;52.374;9.916;2024-01-07T00:08:10;42.81;39.52;54.58;;
71628;Laerm;59477;52.374;9.916;2024-01-07T00:10:10;51.14;39.69;61.87;;
71628;Laerm;59477;52.374;9.916;2024-01-07T00:12:11;44.74;39.82;60.44;;
71628;Laerm;59477;52.374;9.916;2024-01-07T00:14:11;46.08;40.66;66.38;;
71628;Laerm;59477;52.374;9.916;2024-01-07T00:16:30;44.53;40.18;60.23;;
71628;Laerm;59477;52.374;9.916;2024-01-07T00:18:30;46.82;39.90;64.96;;
71628;Laerm;59477;52.374;9.916;2024-01-07T00:20:31;44.69;40.04;54.46;;
71628;Laerm;59477;52.374;9.916;2024-01-07T00:22:31;51.33;40.84;64.55;;
71628;Laerm;59477;52.374;9.916;2024-01-07T00:24:31;46.37;41.94;58.47;;
71628;Laerm;59477;52.374;9.916;2024-01-07T00:26:50;44.36;41.40;51.30;;
71628;Laerm;59477;52.374;9.916;2024-01-07T00:28:50;45.83;40.79;59.84;;
71628;Laerm;59477;52.374;9.916;2024-01-07T00:30:50;44.29;40.57;54.34;;
71628;Laerm;59477;52.374;9.916;2024-01-07T00:32:50;52.21;41.97;63.52;;
71628;Laerm;59477;52.374;9.916;2024-01-07T00:34:51;52.06;41.05;64.38;;
71628;Laerm;59477;52.374;9.916;2024-01-07T00:36:51;50.08;41.47;66.04;;
71628;Laerm;59477;52.374;9.916;2024-01-07T00:38:51;50.31;42.59;64.47;;
71628;Laerm;59477;52.374;9.916;2024-01-07T00:40:52;51.11;41.70;69.87;;
71628;Laerm;59477;52.374;9.916;2024-01-07T00:43:10;47.36;41.15;61.62;;
71628;Laerm;59477;52.374;9.916;2024-01-07T00:45:29;50.24;41.96;67.49;;
71628;Laerm;59477;52.374;9.916;2024-01-07T00:47:30;54.02;40.80;69.29;;
71628;Laerm;59477;52.374;9.916;2024-01-07T00:49:48;53.47;40.79;69.95;;
71628;Laerm;59477;52.374;9.916;2024-01-07T00:52:07;52.53;40.81;67.72;;
71628;Laerm;59477;52.374;9.916;2024-01-07T00:54:27;46.06;39.13;63.01;;
71628;Laerm;59477;52.374;9.916;2024-01-07T00:56:27;44.39;39.27;58.51;;
71628;Laerm;59477;52.374;9.916;2024-01-07T00:58:27;47.04;40.01;60.86;;
71628;Laerm;59477;52.374;9.916;2024-01-07T01:00:46;48.57;39.84;65.96;;
71628;Laerm;59477;52.374;9.916;2024-01-07T01:03:05;43.66;39.49;60.36;;
71628;Laerm;59477;52.374;9.916;2024-01-07T01:05:24;45.87;39.40;60.72;;
71628;Laerm;59477;52.374;9.916;2024-01-07T01:07:24;52.78;39.64;67.36;;
71628;Laerm;59477;52.374;9.916;2024-01-07T01:09:43;47.02;38.93;59.00;;
71628;Laerm;59477;52.374;9.916;2024-01-07T01:11:43;45.25;38.82;60.58;;
71628;Laerm;59477;52.374;9.916;2024-01-07T01:13:44;42.37;38.10;54.62;;
71628;Laerm;59477;52.374;9.916;2024-01-07T01:15:44;45.93;39.13;60.82;;
71628;Laerm;59477;52.374;9.916;2024-01-07T01:18:03;45.19;39.24;57.09;;
71628;Laerm;59477;52.374;9.916;2024-01-07T01:20:21;42.43;38.30;54.50;;
71628;Laerm;59477;52.374;9.916;2024-01-07T01:22:22;44.40;38.97;58.42;;
71628;Laerm;59477;52.374;9.916;2024-01-07T01:24:22;43.82;38.90;57.54;;
71628;Laerm;59477;52.374;9.916;2024-01-07T01:26:22;46.44;39.66;61.75;;
71628;Laerm;59477;52.374;9.916;2024-01-07T01:28:41;51.26;39.22;68.83;;
71628;Laerm;59477;52.374;9.916;2024-01-07T01:31:00;48.39;38.35;69.52;;
71628;Laerm;59477;52.374;9.916;2024-01-07T01:33:19;46.87;39.41;62.73;;
71628;Laerm;59477;52.374;9.916;2024-01-07T01:35:38;46.52;38.91;61.10;;
71628;Laerm;59477;52.374;9.916;2024-01-07T01:37:38;51.38;38.32;67.96;;
71628;Laerm;59477;52.374;9.916;2024-01-07T01:39:40;50.73;39.46;68.41;;
71628;Laerm;59477;52.374;9.916;2024-01-07T01:41:40;43.15;38.64;57.44;;
71628;Laerm;59477;52.374;9.916;2024-01-07T01:43:59;45.45;38.41;64.68;;
71628;Laerm;59477;52.374;9.916;2024-01-07T01:46:18;49.70;38.50;68.14;;
71628;Laerm;59477;52.374;9.916;2024-01-07T01:48:36;43.94;37.46;57.99;;
71628;Laerm;59477;52.374;9.916;2024-01-07T01:50:56;41.08;37.57;52.53;;
71628;Laerm;59477;52.374;9.916;2024-01-07T01:52:57;50.58;38.48;61.77;;
71628;Laerm;59477;52.374;9.916;2024-01-07T01:55:16;47.99;40.13;57.70;;
71628;Laerm;59477;52.374;9.916;2024-01-07T01:57:35;51.28;40.77;67.00;;
71628;Laerm;59477;52.374;9.916;2024-01-07T01:59:36;49.89;41.81;64.53;;
71628;Laerm;59477;52.374;9.916;2024-01-07T02:01:55;53.05;41.01;64.42;;
71628;Laerm;59477;52.374;9.916;2024-01-07T02:03:55;53.23;40.78;69.66;;
71628;Laerm;59477;52.374;9.916;2024-01-07T02:06:15;46.41;39.76;61.89;;
71628;Laerm;59477;52.374;9.916;2024-01-07T02:08:16;50.93;41.33;65.09;;
71628;Laerm;59477;52.374;9.916;2024-01-07T02:10:36;52.95;42.68;71.09;;
71628;Laerm;59477;52.374;9.916;2024-01-07T02:12:58;51.25;41.16;67.56;;
71628;Laerm;59477;52.374;9.916;2024-01-07T02:14:58;51.01;40.66;65.41;;
71628;Laerm;59477;52.374;9.916;2024-01-07T02:16:58;48.26;40.74;62.48;;
71628;Laerm;59477;52.374;9.916;2024-01-07T02:19:17;49.48;38.91;68.43;;
71628;Laerm;59477;52.374;9.916;2024-01-07T02:21:20;54.16;40.53;71.55;;
71628;Laerm;59477;52.374;9.916;2024-01-07T02:23:39;49.61;39.55;67.99;;
71628;Laerm;59477;52.374;9.916;2024-01-07T02:25:57;49.77;39.26;64.27;;
71628;Laerm;59477;52.374;9.916;2024-01-07T02:28:16;53.09;40.64;69.09;;
71628;Laerm;59477;52.374;9.916;2024-01-07T02:30:17;50.68;39.90;67.43;;
71628;Laerm;59477;52.374;9.916;2024-01-07T02:32:17;45.75;38.42;59.37;;
71628;Laerm;59477;52.374;9.916;2024-01-07T02:34:17;48.69;40.86;62.33;;
71628;Laerm;59477;52.374;9.916;2024-01-07T02:36:36;47.20;40.49;60.11;;
71628;Laerm;59477;52.374;9.916;2024-01-07T02:38:55;42.01;39.07;53.79;;
71628;Laerm;59477;52.374;9.916;2024-01-07T02:41:14;42.68;39.20;53.49;;
71628;Laerm;59477;52.374;9.916;2024-01-07T02:43:14;48.31;38.65;69.95;;
71628;Laerm;59477;52.374;9.916;2024-01-07T02:45:14;42.03;38.41;54.24;;
71628;Laerm;59477;52.374;9.916;2024-01-07T02:47:33;42.01;38.49;54.70;;
71628;Laerm;59477;52.374;9.916;2024-01-07T02:49:52;47.27;38.51;67.35;;
71628;Laerm;59477;52.374;9.916;2024-01-07T02:52:11;54.36;39.38;69.51;;
71628;Laerm;59477;52.374;9.916;2024-01-07T02:54:30;47.19;38.83;63.26;;
71628;Laerm;59477;52.374;9.916;2024-01-07T02:56:30;51.53;39.47;67.66;;
71628;Laerm;59477;52.374;9.916;2024-01-07T02:58:30;50.15;39.36;71.95;;
71628;Laerm;59477;52.374;9.916;2024-01-07T03:00:49;43.46;39.47;58.96;;
71628;Laerm;59477;52.374;9.916;2024-01-07T03:03:08;45.02;38.76;62.73;;
71628;Laerm;59477;52.374;9.916;2024-01-07T03:05:27;50.43;38.70;66.24;;
71628;Laerm;59477;52.374;9.916;2024-01-07T03:07:47;44.49;38.40;57.59;;
71628;Laerm;59477;52.374;9.916;2024-01-07T03:09:48;42.94;38.69;54.31;;
71628;Laerm;59477;52.374;9.916;2024-01-07T03:12:07;47.85;38.16;57.53;;
71628;Laerm;59477;52.374;9.916;2024-01-07T03:14:07;45.30;38.27;60.92;;
71628;Laerm;59477;52.374;9.916;2024-01-07T03:16:26;45.03;37.56;60.33;;
71628;Laerm;59477;52.374;9.916;2024-01-07T03:18:45;44.12;37.89;60.35;;
71628;Laerm;59477;52.374;9.916;2024-01-07T03:20:45;42.48;37.47;56.50;;
71628;Laerm;59477;52.374;9.916;2024-01-07T03:22:46;44.36;38.22;63.78;;
71628;Laerm;59477;52.374;9.916;2024-01-07T03:24:46;51.20;39.05;70.23;;
71628;Laerm;59477;52.374;9.916;2024-01-07T03:26:47;44.78;38.50;59.66;;
71628;Laerm;59477;52.374;9.916;2024-01-07T03:28:47;49.25;38.90;67.50;;
71628;Laerm;59477;52.374;9.916;2024-01-07T03:30:47;46.86;39.40;58.83;;
71628;Laerm;59477;52.374;9.916;2024-01-07T03:32:48;49.82;38.94;58.61;;
71628;Laerm;59477;52.374;9.916;2024-01-07T03:34:48;45.72;38.47;62.32;;
71628;Laerm;59477;52.374;9.916;2024-01-07T03:36:48;52.08;38.68;66.00;;
71628;Laerm;59477;52.374;9.916;2024-01-07T03:38:48;45.75;38.42;59.00;;
71628;Laerm;59477;52.374;9.916;2024-01-07T03:40:48;45.47;38.10;62.84;;
71628;Laerm;59477;52.374;9.916;2024-01-07T03:43:07;47.36;38.83;64.14;;
71628;Laerm;59477;52.374;9.916;2024-01-07T03:45:26;46.11;38.79;63.86;;
71628;Laerm;59477;52.374;9.916;2024-01-07T03:47:45;43.78;38.59;59.89;;
71628;Laerm;59477;52.374;9.916;2024-01-07T03:49:46;49.30;39.38;61.79;;
71628;Laerm;59477;52.374;9.916;2024-01-07T03:52:08;52.11;39.46;71.43;;
71628;Laerm;59477;52.374;9.916;2024-01-07T03:54:08;44.09;38.02;56.52;;
71628;Laerm;59477;52.374;9.916;2024-01-07T03:56:27;44.54;37.71;60.19;;
71628;Laerm;59477;52.374;9.916;2024-01-07T03:58:46;52.92;39.01;65.54;;
71628;Laerm;59477;52.374;9.916;2024-01-07T04:00:46;50.29;40.25;62.93;;
71628;Laerm;59477;52.374;9.916;2024-01-07T04:02:47;43.50;39.18;55.77;;
71628;Laerm;59477;52.374;9.916;2024-01-07T04:04:47;48.19;39.80;58.83;;
71628;Laerm;59477;52.374;9.916;2024-01-07T04:07:06;45.35;38.54;62.30;;
71628;Laerm;59477;52.374;9.916;2024-01-07T04:09:06;43.81;37.94;60.57;;
71628;Laerm;59477;52.374;9.916;2024-01-07T04:11:08;42.51;38.19;58.09;;
71628;Laerm;59477;52.374;9.916;2024-01-07T04:13:27;47.82;38.48;65.80;;
71628;Laerm;59477;52.374;9.916;2024-01-07T04:15:46;45.91;38.41;60.44;;
71628;Laerm;59477;52.374;9.916;2024-01-07T04:17:46;44.75;37.42;60.80;;
71628;Laerm;59477;52.374;9.916;2024-01-07T04:20:05;44.21;37.89;63.59;;
71628;Laerm;59477;52.374;9.916;2024-01-07T04:22:24;43.78;37.74;59.10;;
71628;Laerm;59477;52.374;9.916;2024-01-07T04:24:24;49.79;38.20;67.56;;
71628;Laerm;59477;52.374;9.916;2024-01-07T04:26:24;43.90;38.38;57.94;;
71628;Laerm;59477;52.374;9.916;2024-01-07T04:28:24;44.85;38.19;60.43;;
71628;Laerm;59477;52.374;9.916;2024-01-07T04:30:25;42.96;37.70;56.61;;
71628;Laerm;59477;52.374;9.916;2024-01-07T04:32:25;48.85;36.98;70.02;;
71628;Laerm;59477;52.374;9.916;2024-01-07T04:34:25;41.33;36.97;57.11;;
71628;Laerm;59477;52.374;9.916;2024-01-07T04:36:44;43.60;38.25;58.38;;
71628;Laerm;59477;52.374;9.916;2024-01-07T04:38:44;48.55;37.65;64.23;;
71628;Laerm;59477;52.374;9.916;2024-01-07T04:40:44;53.93;40.65;62.07;;
71628;Laerm;59477;52.374;9.916;2024-01-07T04:42:44;41.23;37.03;50.80;;
71628;Laerm;59477;52.374;9.916;2024-01-07T04:44:45;43.49;37.81;55.64;;
71628;Laerm;59477;52.374;9.916;2024-01-07T04:46:46;43.31;36.42;58.89;;
71628;Laerm;59477;52.374;9.916;2024-01-07T04:48:47;43.10;37.75;57.02;;
71628;Laerm;59477;52.374;9.916;2024-01-07T04:50:47;42.30;37.08;54.90;;
71628;Laerm;59477;52.374;9.916;2024-01-07T04:52:47;43.56;38.34;58.84;;
71628;Laerm;59477;52.374;9.916;2024-01-07T04:54:48;44.02;38.52;55.18;;
71628;Laerm;59477;52.374;9.916;2024-01-07T04:56:48;49.33;39.40;69.56;;
71628;Laerm;59477;52.374;9.916;2024-01-07T04:58:48;53.56;40.27;70.49;;
71628;Laerm;59477;52.374;9.916;2024-01-07T05:00:49;49.00;39.54;65.72;;
71628;Laerm;59477;52.374;9.916;2024-01-07T05:02:49;44.22;37.43;60.68;;
71628;Laerm;59477;52.374;9.916;2024-01-07T05:04:49;47.71;38.46;64.08;;
71628;Laerm;59477;52.374;9.916;2024-01-07T05:07:08;47.94;38.10;65.43;;
71628;Laerm;59477;52.374;9.916;2024-01-07T05:09:08;50.81;37.48;73.65;;
71628;Laerm;59477;52.374;9.916;2024-01-07T05:11:09;42.21;37.24;54.26;;
71628;Laerm;59477;52.374;9.916;2024-01-07T05:13:28;46.95;38.88;63.88;;
71628;Laerm;59477;52.374;9.916;2024-01-07T05:15:28;55.27;39.25;72.56;;
71628;Laerm;59477;52.374;9.916;2024-01-07T05:17:28;51.11;37.27;62.11;;
71628;Laerm;59477;52.374;9.916;2024-01-07T05:19:29;54.06;38.50;71.39;;
71628;Laerm;59477;52.374;9.916;2024-01-07T05:21:29;53.08;39.74;71.78;;
71628;Laerm;59477;52.374;9.916;2024-01-07T05:23:30;52.74;41.12;68.74;;
71628;Laerm;59477;52.374;9.916;2024-01-07T05:25:30;50.45;38.21;65.34;;
71628;Laerm;59477;52.374;9.916;2024-01-07T05:27:49;46.08;37.66;61.78;;
71628;Laerm;59477;52.374;9.916;2024-01-07T05:29:49;49.26;38.73;66.29;;
71628;Laerm;59477;52.374;9.916;2024-01-07T05:31:49;48.49;38.91;63.60;;
71628;Laerm;59477;52.374;9.916;2024-01-07T05:33:49;50.60;38.35;67.27;;
71628;Laerm;59477;52.374;9.916;2024-01-07T05:35:50;46.18;36.81;63.43;;
71628;Laerm;59477;52.374;9.916;2024-01-07T05:38:08;49.10;39.39;64.47;;
71628;Laerm;59477;52.374;9.916;2024-01-07T05:40:09;51.99;39.79;67.03;;
71628;Laerm;59477;52.374;9.916;2024-01-07T05:42:09;51.37;38.70;65.15;;
71628;Laerm;59477;52.374;9.916;2024-01-07T05:44:10;50.90;38.16;68.58;;
71628;Laerm;59477;52.374;9.916;2024-01-07T05:46:10;52.41;38.04;72.74;;
71628;Laerm;59477;52.374;9.916;2024-01-07T05:48:40;51.23;38.23;68.05;;
71628;Laerm;59477;52.374;9.916;2024-01-07T05:50:59;48.80;37.42;63.17;;
71628;Laerm;59477;52.374;9.916;2024-01-07T05:53:00;54.60;37.44;72.03;;
71628;Laerm;59477;52.374;9.916;2024-01-07T05:55:01;48.35;38.37;65.15;;
71628;Laerm;59477;52.374;9.916;2024-01-07T05:57:19;50.99;37.79;62.79;;
71628;Laerm;59477;52.374;9.916;2024-01-07T05:59:20;46.16;37.46;58.24;;
71628;Laerm;59477;52.374;9.916;2024-01-07T06:01:39;47.71;37.48;62.16;;
71628;Laerm;59477;52.374;9.916;2024-01-07T06:03:39;49.90;37.50;67.83;;
71628;Laerm;59477;52.374;9.916;2024-01-07T06:05:42;45.32;38.03;61.16;;
71628;Laerm;59477;52.374;9.916;2024-01-07T06:07:42;48.74;37.94;65.18;;
71628;Laerm;59477;52.374;9.916;2024-01-07T06:09:42;44.63;37.49;63.04;;
71628;Laerm;59477;52.374;9.916;2024-01-07T06:12:01;48.59;37.62;65.43;;
71628;Laerm;59477;52.374;9.916;2024-01-07T06:14:21;50.62;36.60;65.94;;
71628;Laerm;59477;52.374;9.916;2024-01-07T06:16:21;51.33;37.95;65.33;;
71628;Laerm;59477;52.374;9.916;2024-01-07T06:18:21;54.84;39.25;69.71;;
71628;Laerm;59477;52.374;9.916;2024-01-07T06:20:22;46.68;36.49;61.75;;
71628;Laerm;59477;52.374;9.916;2024-01-07T06:22:41;48.58;36.74;68.47;;
71628;Laerm;59477;52.374;9.916;2024-01-07T06:25:00;57.62;38.17;77.93;;
71628;Laerm;59477;52.374;9.916;2024-01-07T06:27:01;49.46;37.34;66.11;;
71628;Laerm;59477;52.374;9.916;2024-01-07T06:29:03;49.08;38.40;66.95;;
71628;Laerm;59477;52.374;9.916;2024-01-07T06:31:04;49.93;37.90;65.23;;
71628;Laerm;59477;52.374;9.916;2024-01-07T06:33:04;50.11;37.74;64.65;;
71628;Laerm;59477;52.374;9.916;2024-01-07T06:35:05;46.07;37.04;61.90;;
71628;Laerm;59477;52.374;9.916;2024-01-07T06:37:05;48.67;37.71;65.80;;
71628;Laerm;59477;52.374;9.916;2024-01-07T06:39:07;48.58;37.27;63.79;;
71628;Laerm;59477;52.374;9.916;2024-01-07T06:41:26;48.67;37.34;69.23;;
71628;Laerm;59477;52.374;9.916;2024-01-07T06:43:45;41.78;36.60;52.44;;
71628;Laerm;59477;52.374;9.916;2024-01-07T06:46:04;49.20;37.35;71.65;;
71628;Laerm;59477;52.374;9.916;2024-01-07T06:48:05;45.27;36.74;57.35;;
71628;Laerm;59477;52.374;9.916;2024-01-07T06:50:05;43.72;37.55;59.39;;
71628;Laerm;59477;52.374;9.916;2024-01-07T06:52:05;42.09;37.72;52.83;;
71628;Laerm;59477;52.374;9.916;2024-01-07T06:54:24;45.87;37.48;61.95;;
71628;Laerm;59477;52.374;9.916;2024-01-07T06:56:43;46.85;37.86;61.17;;
71628;Laerm;59477;52.374;9.916;2024-01-07T06:58:44;43.67;37.86;54.49;;
71628;Laerm;59477;52.374;9.916;2024-01-07T07:00:44;51.68;39.49;58.60;;
71628;Laerm;59477;52.374;9.916;2024-01-07T07:02:44;45.66;40.64;55.04;;
71628;Laerm;59477;52.374;9.916;2024-01-07T07:04:44;45.96;38.43;58.98;;
71628;Laerm;59477;52.374;9.916;2024-01-07T07:06:45;40.90;37.48;45.95;;
71628;Laerm;59477;52.374;9.916;2024-01-07T07:08:45;43.60;37.36;55.22;;
71628;Laerm;59477;52.374;9.916;2024-01-07T07:11:04;42.20;37.66;53.63;;
71628;Laerm;59477;52.374;9.916;2024-01-07T07:13:23;43.13;36.77;59.91;;
71628;Laerm;59477;52.374;9.916;2024-01-07T07:15:24;41.69;38.31;51.67;;
71628;Laerm;59477;52.374;9.916;2024-01-07T07:17:45;43.16;38.69;55.66;;
71628;Laerm;59477;52.374;9.916;2024-01-07T07:19:45;49.06;39.88;63.97;;
71628;Laerm;59477;52.374;9.916;2024-01-07T07:21:46;44.95;38.25;57.65;;
71628;Laerm;59477;52.374;9.916;2024-01-07T07:24:05;45.64;39.60;56.67;;
71628;Laerm;59477;52.374;9.916;2024-01-07T07:26:05;45.05;38.68;59.33;;
71628;Laerm;59477;52.374;9.916;2024-01-07T07:28:06;43.91;38.53;59.47;;
71628;Laerm;59477;52.374;9.916;2024-01-07T07:30:07;45.13;38.34;67.08;;
71628;Laerm;59477;52.374;9.916;2024-01-07T07:32:07;43.06;38.80;62.65;;
71628;Laerm;59477;52.374;9.916;2024-01-07T07:34:08;43.29;38.39;59.12;;
71628;Laerm;59477;52.374;9.916;2024-01-07T07:36:09;46.19;38.25;66.50;;
71628;Laerm;59477;52.374;9.916;2024-01-07T07:38:09;50.02;39.24;60.63;;
71628;Laerm;59477;52.374;9.916;2024-01-07T07:40:10;46.57;39.41;61.02;;
71628;Laerm;59477;52.374;9.916;2024-01-07T07:42:12;43.88;39.69;59.58;;
71628;Laerm;59477;52.374;9.916;2024-01-07T07:44:32;45.93;38.77;61.07;;
71628;Laerm;59477;52.374;9.916;2024-01-07T07:46:51;42.23;38.84;55.55;;
71628;Laerm;59477;52.374;9.916;2024-01-07T07:48:51;43.90;39.67;58.28;;
71628;Laerm;59477;52.374;9.916;2024-01-07T07:51:10;43.94;39.72;52.92;;
71628;Laerm;59477;52.374;9.916;2024-01-07T07:53:10;47.33;40.41;54.89;;
71628;Laerm;59477;52.374;9.916;2024-01-07T07:55:29;50.92;44.60;57.71;;
71628;Laerm;59477;52.374;9.916;2024-01-07T07:57:48;47.36;39.53;58.10;;
71628;Laerm;59477;52.374;9.916;2024-01-07T07:59:48;50.51;41.63;58.30;;
71628;Laerm;59477;52.374;9.916;2024-01-07T08:01:49;44.22;39.30;62.79;;
71628;Laerm;59477;52.374;9.916;2024-01-07T08:03:50;47.24;39.54;71.10;;
71628;Laerm;59477;52.374;9.916;2024-01-07T08:05:50;43.08;39.10;52.92;;
71628;Laerm;59477;52.374;9.916;2024-01-07T08:07:50;49.79;39.61;73.78;;
71628;Laerm;59477;52.374;9.916;2024-01-07T08:09:51;42.62;38.16;50.99;;
71628;Laerm;59477;52.374;9.916;2024-01-07T08:11:51;45.28;39.24;55.83;;
71628;Laerm;59477;52.374;9.916;2024-01-07T08:13:51;42.81;38.78;52.17;;
71628;Laerm;59477;52.374;9.916;2024-01-07T08:15:51;44.70;38.46;75.40;;
71628;Laerm;59477;52.374;9.916;2024-01-07T08:17:52;47.99;39.61;58.08;;
71628;Laerm;59477;52.374;9.916;2024-01-07T08:19:52;44.26;40.39;51.76;;
71628;Laerm;59477;52.374;9.916;2024-01-07T08:21:53;49.28;40.84;62.98;;
71628;Laerm;59477;52.374;9.916;2024-01-07T08:23:53;43.85;39.26;65.45;;
71628;Laerm;59477;52.374;9.916;2024-01-07T08:25:53;45.44;38.77;58.31;;
71628;Laerm;59477;52.374;9.916;2024-01-07T08:27:53;43.98;39.87;51.26;;
71628;Laerm;59477;52.374;9.916;2024-01-07T08:30:12;45.31;39.12;55.09;;
71628;Laerm;59477;52.374;9.916;2024-01-07T08:32:13;44.37;40.06;52.80;;
71628;Laerm;59477;52.374;9.916;2024-01-07T08:34:32;43.01;39.41;48.72;;
71628;Laerm;59477;52.374;9.916;2024-01-07T08:36:32;43.78;39.49;55.81;;
71628;Laerm;59477;52.374;9.916;2024-01-07T08:38:51;43.02;39.10;60.27;;
71628;Laerm;59477;52.374;9.916;2024-01-07T08:41:10;45.75;39.55;56.23;;
71628;Laerm;59477;52.374;9.916;2024-01-07T08:43:29;43.89;39.70;55.58;;
71628;Laerm;59477;52.374;9.916;2024-01-07T08:45:48;42.70;39.48;58.55;;
71628;Laerm;59477;52.374;9.916;2024-01-07T08:47:48;46.50;39.55;65.17;;
71628;Laerm;59477;52.374;9.916;2024-01-07T08:49:48;45.01;40.21;58.15;;
71628;Laerm;59477;52.374;9.916;2024-01-07T08:52:07;45.03;39.87;57.07;;
71628;Laerm;59477;52.374;9.916;2024-01-07T08:54:07;44.55;40.82;52.93;;
71628;Laerm;59477;52.374;9.916;2024-01-07T08:56:26;45.38;40.11;54.62;;
71628;Laerm;59477;52.374;9.916;2024-01-07T08:58:26;51.61;40.19;78.73;;
71628;Laerm;59477;52.374;9.916;2024-01-07T09:00:27;48.15;41.29;73.37;;
71628;Laerm;59477;52.374;9.916;2024-01-07T09:02:31;48.71;40.85;61.60;;
71628;Laerm;59477;52.374;9.916;2024-01-07T09:04:31;51.43;40.70;60.91;;
71628;Laerm;59477;52.374;9.916;2024-01-07T09:06:33;48.19;39.64;62.37;;
71628;Laerm;59477;52.374;9.916;2024-01-07T09:08:34;52.37;40.95;65.12;;
71628;Laerm;59477;52.374;9.916;2024-01-07T09:10:54;46.92;39.98;63.65;;
71628;Laerm;59477;52.374;9.916;2024-01-07T09:12:54;44.50;40.85;52.10;;
71628;Laerm;59477;52.374;9.916;2024-01-07T09:14:54;43.69;39.89;49.06;;
71628;Laerm;59477;52.374;9.916;2024-01-07T09:16:54;44.90;41.16;52.93;;
71628;Laerm;59477;52.374;9.916;2024-01-07T09:18:55;47.20;41.25;57.38;;
71628;Laerm;59477;52.374;9.916;2024-01-07T09:20:55;47.22;40.93;55.60;;
71628;Laerm;59477;52.374;9.916;2024-01-07T09:22:56;45.89;40.90;56.22;;
71628;Laerm;59477;52.374;9.916;2024-01-07T09:25:15;47.45;40.52;61.61;;
71628;Laerm;59477;52.374;9.916;2024-01-07T09:27:16;49.16;42.03;59.64;;
71628;Laerm;59477;52.374;9.916;2024-01-07T09:29:17;45.81;41.90;53.68;;
71628;Laerm;59477;52.374;9.916;2024-01-07T09:31:36;44.72;41.10;52.74;;
71628;Laerm;59477;52.374;9.916;2024-01-07T09:33:55;47.46;42.23;57.60;;
71628;Laerm;59477;52.374;9.916;2024-01-07T09:35:55;45.39;41.76;53.43;;
71628;Laerm;59477;52.374;9.916;2024-01-07T09:37:55;51.50;42.32;63.64;;
71628;Laerm;59477;52.374;9.916;2024-01-07T09:39:56;49.04;42.56;58.92;;
71628;Laerm;59477;52.374;9.916;2024-01-07T09:41:56;46.20;42.34;56.50;;
71628;Laerm;59477;52.374;9.916;2024-01-07T09:43:57;46.53;41.95;58.02;;
71628;Laerm;59477;52.374;9.916;2024-01-07T09:46:17;48.05;41.87;61.88;;
71628;Laerm;59477;52.374;9.916;2024-01-07T09:48:17;47.67;41.57;55.67;;
71628;Laerm;59477;52.374;9.916;2024-01-07T09:50:18;49.16;42.40;60.13;;
71628;Laerm;59477;52.374;9.916;2024-01-07T09:52:18;47.51;41.49;75.84;;
71628;Laerm;59477;52.374;9.916;2024-01-07T09:54:20;46.93;41.92;61.79;;
71628;Laerm;59477;52.374;9.916;2024-01-07T09:56:42;46.80;41.59;63.20;;
71628;Laerm;59477;52.374;9.916;2024-01-07T09:58:45;47.69;41.48;57.85;;
71628;Laerm;59477;52.374;9.916;2024-01-07T10:01:06;45.86;41.40;56.04;;
71628;Laerm;59477;52.374;9.916;2024-01-07T10:03:07;46.14;41.87;54.78;;
71628;Laerm;59477;52.374;9.916;2024-01-07T10:05:07;46.30;41.86;60.60;;
71628;Laerm;59477;52.374;9.916;2024-01-07T10:07:07;47.38;41.97;56.62;;
71628;Laerm;59477;52.374;9.916;2024-01-07T10:09:32;45.40;41.83;52.92;;
71628;Laerm;59477;52.374;9.916;2024-01-07T10:11:51;45.40;41.82;52.53;;
71628;Laerm;59477;52.374;9.916;2024-01-07T10:13:51;45.40;41.49;58.31;;
71628;Laerm;59477;52.374;9.916;2024-01-07T10:15:53;51.15;41.87;61.71;;
71628;Laerm;59477;52.374;9.916;2024-01-07T10:17:56;48.65;41.70;62.16;;
71628;Laerm;59477;52.374;9.916;2024-01-07T10:20:04;44.89;41.56;59.46;;
71628;Laerm;59477;52.374;9.916;2024-01-07T10:22:23;47.28;41.58;54.16;;
71628;Laerm;59477;52.374;9.916;2024-01-07T10:24:42;44.77;40.73;54.23;;
71628;Laerm;59477;52.374;9.916;2024-01-07T10:26:43;44.92;41.63;54.42;;
71628;Laerm;59477;52.374;9.916;2024-01-07T10:29:02;49.31;42.47;59.90;;
71628;Laerm;59477;52.374;9.916;2024-01-07T10:31:03;44.96;41.75;52.78;;
71628;Laerm;59477;52.374;9.916;2024-01-07T10:33:22;46.67;41.15;56.35;;
71628;Laerm;59477;52.374;9.916;2024-01-07T10:35:35;44.61;41.02;50.73;;
71628;Laerm;59477;52.374;9.916;2024-01-07T10:37:35;46.65;41.46;56.88;;
71628;Laerm;59477;52.374;9.916;2024-01-07T10:39:36;46.57;40.66;57.06;;
71628;Laerm;59477;52.374;9.916;2024-01-07T10:41:36;46.62;41.40;53.15;;
71628;Laerm;59477;52.374;9.916;2024-01-07T10:43:37;45.39;41.05;53.84;;
71628;Laerm;59477;52.374;9.916;2024-01-07T10:45:38;47.41;41.97;54.92;;
71628;Laerm;59477;52.374;9.916;2024-01-07T10:47:38;48.47;41.69;62.00;;
71628;Laerm;59477;52.374;9.916;2024-01-07T10:49:59;48.59;40.82;61.15;;
71628;Laerm;59477;52.374;9.916;2024-01-07T10:52:17;49.53;41.61;59.73;;
71628;Laerm;59477;52.374;9.916;2024-01-07T10:54:36;49.92;42.81;58.39;;
71628;Laerm;59477;52.374;9.916;2024-01-07T10:56:57;46.72;41.16;57.75;;
71628;Laerm;59477;52.374;9.916;2024-01-07T10:58:58;46.97;40.41;59.06;;
71628;Laerm;59477;52.374;9.916;2024-01-07T11:00:59;49.98;41.79;61.34;;
71628;Laerm;59477;52.374;9.916;2024-01-07T11:05:05;48.38;42.14;59.91;;
71628;Laerm;59477;52.374;9.916;2024-01-07T11:09:21;51.76;41.29;75.49;;
71628;Laerm;59477;52.374;9.916;2024-01-07T11:11:27;48.58;41.60;68.44;;
71628;Laerm;59477;52.374;9.916;2024-01-07T11:13:32;46.85;41.77;56.38;;
71628;Laerm;59477;52.374;9.916;2024-01-07T11:16:07;50.56;41.47;64.20;;
71628;Laerm;59477;52.374;9.916;2024-01-07T11:18:00;45.61;40.85;62.38;;
71628;Laerm;59477;52.374;9.916;2024-01-07T11:20:07;46.04;40.82;67.97;;
71628;Laerm;59477;52.374;9.916;2024-01-07T11:22:24;47.71;42.35;56.78;;
71628;Laerm;59477;52.374;9.916;2024-01-07T11:24:39;45.71;41.10;57.16;;
71628;Laerm;59477;52.374;9.916;2024-01-07T11:26:40;46.49;42.14;54.51;;
71628;Laerm;59477;52.374;9.916;2024-01-07T11:29:00;45.26;40.94;56.32;;
71628;Laerm;59477;52.374;9.916;2024-01-07T11:31:00;47.56;41.37;59.65;;
71628;Laerm;59477;52.374;9.916;2024-01-07T11:33:00;45.77;40.78;58.84;;
71628;Laerm;59477;52.374;9.916;2024-01-07T11:35:21;47.26;41.92;61.25;;
71628;Laerm;59477;52.374;9.916;2024-01-07T11:37:58;51.31;42.87;61.85;;
71628;Laerm;59477;52.374;9.916;2024-01-07T11:40:16;46.40;42.01;55.99;;
71628;Laerm;59477;52.374;9.916;2024-01-07T11:42:37;45.46;41.86;57.57;;
71628;Laerm;59477;52.374;9.916;2024-01-07T11:44:56;44.94;41.10;60.22;;
71628;Laerm;59477;52.374;9.916;2024-01-07T11:47:15;49.11;40.91;68.41;;
71628;Laerm;59477;52.374;9.916;2024-01-07T11:49:18;50.20;43.02;59.54;;
71628;Laerm;59477;52.374;9.916;2024-01-07T11:51:37;45.24;41.18;58.78;;
71628;Laerm;59477;52.374;9.916;2024-01-07T11:53:37;47.81;43.07;58.28;;
71628;Laerm;59477;52.374;9.916;2024-01-07T11:55:38;46.76;42.79;51.94;;
71628;Laerm;59477;52.374;9.916;2024-01-07T11:57:57;47.54;42.67;64.39;;